createdAt,value
2023-04-21T00:00:25.579Z,8.48
2023-04-21T00:02:52.166Z,8.49
2023-04-21T00:05:18.906Z,8.41
2023-04-21T00:07:45.525Z,8.40
2023-04-21T00:10:12.215Z,8.39
2023-04-21T00:12:38.853Z,8.40
2023-04-21T00:15:06.070Z,8.41
2023-04-21T00:17:32.587Z,8.40
2023-04-21T00:19:59.010Z,8.37
2023-04-21T00:22:25.466Z,8.41
2023-04-21T00:24:51.998Z,8.41
2023-04-21T00:27:18.462Z,8.35
2023-04-21T00:29:44.978Z,8.34
2023-04-21T00:32:11.480Z,8.34
2023-04-21T00:34:37.885Z,8.38
2023-04-21T00:37:04.467Z,8.44
2023-04-21T00:39:30.938Z,8.49
2023-04-21T00:41:57.398Z,8.53
2023-04-21T00:44:23.908Z,8.47
2023-04-21T00:46:50.419Z,8.40
2023-04-21T00:49:17.160Z,8.43
2023-04-21T00:51:43.868Z,8.41
2023-04-21T00:54:13.873Z,8.39
2023-04-21T00:56:40.491Z,8.31
2023-04-21T00:59:06.952Z,8.33
2023-04-21T01:01:36.532Z,8.32
2023-04-21T01:04:05.189Z,8.33
2023-04-21T01:06:33.141Z,8.35
2023-04-21T01:09:00.512Z,8.27
2023-04-21T01:11:27.031Z,8.23
2023-04-21T01:13:54.578Z,8.20
2023-04-21T01:16:23.110Z,8.21
2023-04-21T01:18:50.493Z,8.19
2023-04-21T01:21:17.511Z,8.21
2023-04-21T01:23:44.022Z,8.24
2023-04-21T01:26:10.487Z,8.26
2023-04-21T01:28:36.961Z,8.32
2023-04-21T01:31:04.406Z,8.32
2023-04-21T01:33:31.046Z,8.29
2023-04-21T01:35:57.646Z,8.21
2023-04-21T01:38:24.146Z,8.21
2023-04-21T01:40:52.998Z,8.20
2023-04-21T01:43:22.578Z,8.24
2023-04-21T01:45:49.201Z,8.27
2023-04-21T01:48:15.758Z,8.29
2023-04-21T01:50:42.251Z,8.29
2023-04-21T01:53:08.972Z,8.34
2023-04-21T01:55:35.637Z,8.29
2023-04-21T01:58:02.060Z,8.29
2023-04-21T02:00:28.645Z,8.32
2023-04-21T02:02:55.210Z,8.28
2023-04-21T02:05:21.785Z,8.24
2023-04-21T02:07:48.182Z,8.26
2023-04-21T02:10:14.623Z,8.25
2023-04-21T02:12:41.142Z,8.33
2023-04-21T02:15:08.191Z,8.37
2023-04-21T02:17:34.842Z,8.39
2023-04-21T02:20:03.885Z,8.35
2023-04-21T02:22:30.769Z,8.36
2023-04-21T02:24:57.270Z,8.33
2023-04-21T02:27:23.767Z,8.36
2023-04-21T02:29:50.238Z,8.38
2023-04-21T02:32:25.653Z,8.39
2023-04-21T02:34:52.963Z,8.41
2023-04-21T02:37:20.050Z,8.37
2023-04-21T02:39:46.533Z,8.37
2023-04-21T02:42:12.953Z,8.38
2023-04-21T02:44:39.446Z,8.35
2023-04-21T02:47:05.898Z,8.24
2023-04-21T02:49:32.368Z,8.19
2023-04-21T02:51:58.836Z,8.19
2023-04-21T02:54:25.316Z,8.19
2023-04-21T02:56:51.768Z,8.23
2023-04-21T02:59:18.576Z,8.20
2023-04-21T03:01:46.294Z,8.20
2023-04-21T03:04:13.050Z,8.23
2023-04-21T03:06:39.819Z,8.18
2023-04-21T03:09:06.292Z,8.14
2023-04-21T03:11:32.676Z,8.16
2023-04-21T03:13:59.149Z,8.16
2023-04-21T03:16:25.595Z,8.18
2023-04-21T03:18:52.116Z,8.18
2023-04-21T03:21:18.915Z,8.20
2023-04-21T03:23:45.538Z,8.18
2023-04-21T03:26:12.038Z,8.15
2023-04-21T03:28:38.541Z,8.11
2023-04-21T03:31:05.097Z,8.09
2023-04-21T03:33:31.547Z,8.10
2023-04-21T03:35:58.025Z,8.12
2023-04-21T03:38:24.546Z,8.12
2023-04-21T03:40:50.970Z,8.12
2023-04-21T03:43:17.435Z,8.08
2023-04-21T03:45:43.979Z,8.13
2023-04-21T03:48:10.692Z,8.07
2023-04-21T03:50:38.429Z,8.09
2023-04-21T03:53:04.868Z,8.08
2023-04-21T03:55:31.388Z,8.09
2023-04-21T03:57:57.835Z,8.06
2023-04-21T04:00:24.425Z,8.07
2023-04-21T04:02:51.102Z,8.07
2023-04-21T04:05:17.729Z,7.99
2023-04-21T04:07:45.352Z,7.99
2023-04-21T04:10:12.039Z,8.01
2023-04-21T04:12:38.503Z,8.02
2023-04-21T04:15:05.436Z,8.00
2023-04-21T04:17:31.951Z,7.97
2023-04-21T04:19:58.378Z,7.94
2023-04-21T04:22:24.870Z,7.94
2023-04-21T04:24:51.307Z,7.94
2023-04-21T04:27:17.990Z,7.95
2023-04-21T04:29:46.447Z,7.91
2023-04-21T04:32:13.608Z,7.83
2023-04-21T04:34:40.009Z,7.81
2023-04-21T04:37:06.557Z,7.81
2023-04-21T04:39:33.107Z,7.82
2023-04-21T04:41:59.731Z,7.84
2023-04-21T04:44:26.162Z,7.83
2023-04-21T04:46:52.934Z,7.82
2023-04-21T04:49:19.732Z,7.83
2023-04-21T04:51:46.630Z,7.81
2023-04-21T04:54:13.246Z,7.77
2023-04-21T04:56:40.458Z,7.79
2023-04-21T04:59:06.908Z,7.81
2023-04-21T05:01:33.472Z,7.75
2023-04-21T05:04:00.299Z,7.79
2023-04-21T05:06:26.857Z,7.81
2023-04-21T05:08:53.295Z,7.84
2023-04-21T05:11:20.291Z,7.86
2023-04-21T05:13:46.872Z,7.86
2023-04-21T05:16:13.381Z,7.80
2023-04-21T05:18:39.922Z,7.80
2023-04-21T05:21:06.386Z,7.78
2023-04-21T05:23:32.845Z,7.79
2023-04-21T05:26:01.998Z,7.84
2023-04-21T05:28:31.778Z,7.91
2023-04-21T05:30:58.327Z,7.96
2023-04-21T05:33:26.663Z,8.03
2023-04-21T05:35:53.252Z,7.99
2023-04-21T05:38:19.710Z,7.97
2023-04-21T05:40:53.319Z,7.91
2023-04-21T05:43:19.848Z,7.91
2023-04-21T05:45:46.328Z,7.95
2023-04-21T05:48:13.753Z,7.92
2023-04-21T05:50:40.338Z,7.86
2023-04-21T05:53:06.828Z,7.90
2023-04-21T05:55:36.938Z,7.89
2023-04-21T05:58:04.242Z,7.87
2023-04-21T06:00:30.899Z,7.85
2023-04-21T06:02:57.587Z,7.87
2023-04-21T06:05:24.225Z,7.92
2023-04-21T06:07:50.777Z,7.96
2023-04-21T06:10:17.846Z,8.06
2023-04-21T06:12:44.327Z,8.13
2023-04-21T06:15:10.900Z,8.15
2023-04-21T06:17:37.402Z,8.14
2023-04-21T06:20:04.269Z,8.13
2023-04-21T06:22:30.826Z,8.18
2023-04-21T06:24:58.683Z,8.26
2023-04-21T06:27:25.520Z,8.24
2023-04-21T06:29:56.109Z,8.26
2023-04-21T06:32:22.702Z,8.27
2023-04-21T06:34:49.194Z,8.25
2023-04-21T06:37:15.770Z,8.29
2023-04-21T06:39:42.179Z,8.34
2023-04-21T06:42:08.661Z,8.41
2023-04-21T06:44:35.131Z,8.45
2023-04-21T06:47:01.661Z,8.52
2023-04-21T06:49:28.347Z,8.57
2023-04-21T06:51:54.929Z,8.64
2023-04-21T06:54:21.327Z,8.69
2023-04-21T06:56:47.799Z,8.73
2023-04-21T06:59:14.307Z,8.78
2023-04-21T07:01:40.833Z,8.83
2023-04-21T07:04:07.462Z,8.87
2023-04-21T07:06:34.086Z,8.92
2023-04-21T07:09:00.610Z,8.97
2023-04-21T07:11:28.615Z,9.02
2023-04-21T07:13:55.710Z,9.02
2023-04-21T07:16:22.349Z,9.05
2023-04-21T07:18:48.954Z,9.02
2023-04-21T07:21:15.502Z,9.03
2023-04-21T07:23:41.922Z,9.06
2023-04-21T07:26:08.371Z,9.11
2023-04-21T07:28:34.822Z,9.16
2023-04-21T07:31:03.373Z,9.18
2023-04-21T07:33:30.119Z,9.22
2023-04-21T07:35:56.756Z,9.25
2023-04-21T07:38:23.195Z,9.23
2023-04-21T07:40:49.704Z,9.24
2023-04-21T07:43:16.461Z,9.27
2023-04-21T07:45:43.006Z,9.32
2023-04-21T07:48:09.508Z,9.32
2023-04-21T07:50:36.403Z,9.37
2023-04-21T07:53:03.248Z,9.42
2023-04-21T07:55:29.856Z,9.46
2023-04-21T07:57:56.608Z,9.48
2023-04-21T08:00:23.113Z,9.55
2023-04-21T08:02:49.748Z,9.59
2023-04-21T08:05:16.480Z,9.59
2023-04-21T08:07:43.081Z,9.57
2023-04-21T08:10:10.190Z,9.59
2023-04-21T08:12:36.783Z,9.67
2023-04-21T08:15:07.584Z,9.72
2023-04-21T08:17:34.841Z,9.78
2023-04-21T08:20:02.310Z,9.87
2023-04-21T08:22:28.861Z,9.96
2023-04-21T08:24:55.542Z,9.98
2023-04-21T08:27:22.107Z,9.99
2023-04-21T08:29:51.167Z,10.00
2023-04-21T08:32:23.417Z,10.08
2023-04-21T08:34:51.835Z,10.14
2023-04-21T08:37:19.364Z,10.23
2023-04-21T08:39:46.739Z,10.25
2023-04-21T08:42:15.019Z,10.28
2023-04-21T08:44:41.700Z,10.31
2023-04-21T08:47:11.422Z,10.30
2023-04-21T08:49:39.041Z,10.36
2023-04-21T08:52:06.116Z,10.41
2023-04-21T08:54:33.548Z,10.47
2023-04-21T08:57:11.811Z,10.50
2023-04-21T08:59:41.067Z,10.50
2023-04-21T09:02:11.822Z,10.53
2023-04-21T09:04:40.948Z,10.57
2023-04-21T09:07:08.843Z,10.64
2023-04-21T09:09:55.051Z,10.69
2023-04-21T09:12:22.521Z,10.73
2023-04-21T09:14:48.996Z,10.76
2023-04-21T09:17:17.214Z,10.76
2023-04-21T09:19:44.796Z,10.78
2023-04-21T09:22:16.691Z,10.82
2023-04-21T09:24:48.202Z,10.92
2023-04-21T09:27:17.838Z,11.02
2023-04-21T09:29:48.460Z,11.09
2023-04-21T09:32:19.633Z,11.10
2023-04-21T09:34:46.725Z,11.07
2023-04-21T09:37:17.251Z,11.11
2023-04-21T09:40:03.432Z,11.21
2023-04-21T09:42:32.692Z,11.35
2023-04-21T09:45:16.407Z,11.36
2023-04-21T09:47:51.367Z,11.41
2023-04-21T09:50:36.173Z,11.46
2023-04-21T09:53:09.725Z,11.58
2023-04-21T09:55:36.759Z,11.61
2023-04-21T09:58:07.092Z,11.65
2023-04-21T10:00:39.193Z,11.68
2023-04-21T10:03:10.385Z,11.76
2023-04-21T10:05:41.273Z,11.82
2023-04-21T10:08:11.414Z,11.92
2023-04-21T10:10:38.946Z,11.99
2023-04-21T10:13:05.780Z,12.05
2023-04-21T10:15:39.815Z,12.05
2023-04-21T10:18:14.370Z,12.12
2023-04-21T10:21:02.677Z,12.19
2023-04-21T10:23:37.559Z,12.18
2023-04-21T10:26:17.464Z,12.13
2023-04-21T10:28:47.853Z,12.05
2023-04-21T10:31:19.332Z,12.03
2023-04-21T10:34:12.651Z,12.09
2023-04-21T10:36:45.884Z,12.10
2023-04-21T10:39:33.510Z,12.07
2023-04-21T10:42:20.702Z,12.12
2023-04-21T10:44:56.139Z,12.22
2023-04-21T10:47:30.382Z,12.43
2023-04-21T10:49:58.198Z,12.51
2023-04-21T10:52:34.041Z,12.58
2023-04-21T10:55:07.804Z,12.57
2023-04-21T10:57:35.756Z,12.71
2023-04-21T11:00:07.320Z,12.82
2023-04-21T11:02:38.138Z,12.82
2023-04-21T11:05:07.437Z,12.85
2023-04-21T11:07:33.994Z,12.87
2023-04-21T11:10:06.260Z,12.95
2023-04-21T11:12:40.424Z,12.98
2023-04-21T11:15:09.587Z,13.05
2023-04-21T11:17:38.505Z,13.10
2023-04-21T11:20:06.841Z,13.20
2023-04-21T11:22:34.280Z,13.20
2023-04-21T11:25:00.899Z,13.33
2023-04-21T11:27:29.939Z,13.37
2023-04-21T11:29:57.484Z,13.53
2023-04-21T11:32:25.083Z,13.65
2023-04-21T11:34:51.713Z,13.82
2023-04-21T11:37:26.838Z,13.94
2023-04-21T11:39:58.391Z,14.04
2023-04-21T11:42:24.939Z,14.06
2023-04-21T11:44:54.332Z,14.10
2023-04-21T11:47:26.094Z,14.34
2023-04-21T11:49:56.743Z,14.41
2023-04-21T11:52:33.061Z,14.45
2023-04-21T11:55:05.333Z,14.55
2023-04-21T11:57:33.173Z,14.49
2023-04-21T12:00:01.103Z,14.45
2023-04-21T12:02:32.346Z,14.44
2023-04-21T12:05:06.968Z,14.33
2023-04-21T12:07:36.638Z,14.28
2023-04-21T12:10:10.158Z,14.51
2023-04-21T12:12:41.181Z,14.72
2023-04-21T12:15:09.294Z,14.92
2023-04-21T12:17:45.621Z,15.28
2023-04-21T12:20:15.358Z,15.60
2023-04-21T12:22:41.892Z,16.08
2023-04-21T12:25:09.025Z,16.29
2023-04-21T12:27:35.711Z,16.48
2023-04-21T12:30:03.209Z,16.19
2023-04-21T12:32:29.731Z,16.16
2023-04-21T12:34:56.193Z,15.99
2023-04-21T12:37:22.665Z,15.81
2023-04-21T12:39:49.112Z,15.79
2023-04-21T12:42:16.012Z,16.41
2023-04-21T12:44:42.548Z,17.05
2023-04-21T12:47:09.185Z,17.17
2023-04-21T12:49:35.748Z,17.63
2023-04-21T12:52:05.302Z,17.40
2023-04-21T12:54:31.772Z,16.89
2023-04-21T12:56:58.722Z,16.54
2023-04-21T12:59:25.345Z,16.25
2023-04-21T13:01:51.920Z,16.01
2023-04-21T13:04:18.803Z,15.81
2023-04-21T13:06:45.574Z,15.79
2023-04-21T13:09:12.018Z,16.06
2023-04-21T13:11:38.579Z,16.06
2023-04-21T13:14:05.136Z,15.97
2023-04-21T13:16:31.926Z,15.99
2023-04-21T13:18:58.613Z,16.45
2023-04-21T13:21:25.144Z,17.06
2023-04-21T13:23:51.630Z,17.53
2023-04-21T13:26:18.678Z,17.32
2023-04-21T13:28:45.428Z,16.87
2023-04-21T13:31:12.031Z,16.64
2023-04-21T13:33:38.598Z,16.42
2023-04-21T13:36:05.504Z,16.30
2023-04-21T13:38:32.126Z,16.37
2023-04-21T13:40:58.906Z,17.39
2023-04-21T13:43:25.557Z,17.01
2023-04-21T13:45:52.467Z,16.65
2023-04-21T13:48:24.103Z,16.57
2023-04-21T13:50:51.516Z,16.44
2023-04-21T13:53:19.894Z,16.34
2023-04-21T13:55:47.629Z,16.37
2023-04-21T13:58:18.205Z,16.77
2023-04-21T14:00:44.776Z,17.61
2023-04-21T14:03:11.945Z,18.03
2023-04-21T14:05:39.049Z,18.29
2023-04-21T14:08:06.454Z,18.39
2023-04-21T14:10:33.111Z,18.00
2023-04-21T14:12:59.764Z,17.83
2023-04-21T14:15:26.416Z,18.14
2023-04-21T14:17:53.387Z,18.41
2023-04-21T14:20:20.161Z,18.35
2023-04-21T14:22:46.826Z,18.00
2023-04-21T14:25:13.431Z,17.53
2023-04-21T14:27:39.877Z,17.29
2023-04-21T14:30:07.118Z,17.15
2023-04-21T14:32:33.705Z,17.36
2023-04-21T14:35:03.140Z,17.52
2023-04-21T14:37:29.661Z,17.95
2023-04-21T14:39:56.239Z,18.21
2023-04-21T14:42:22.691Z,18.28
2023-04-21T14:44:49.194Z,18.12
2023-04-21T14:47:15.827Z,17.63
2023-04-21T14:49:43.167Z,17.34
2023-04-21T14:52:09.805Z,17.42
2023-04-21T14:54:36.273Z,17.31
2023-04-21T14:57:18.750Z,17.16
2023-04-21T14:59:46.744Z,17.09
2023-04-21T15:02:13.832Z,17.15
2023-04-21T15:04:40.782Z,17.52
2023-04-21T15:07:07.413Z,17.63
2023-04-21T15:09:35.574Z,17.57
2023-04-21T15:12:02.518Z,17.70
2023-04-21T15:14:29.078Z,17.79
2023-04-21T15:16:55.599Z,17.68
2023-04-21T15:19:24.006Z,17.79
2023-04-21T15:21:51.930Z,17.73
2023-04-21T15:24:18.443Z,17.63
2023-04-21T15:26:44.950Z,17.77
2023-04-21T15:29:11.533Z,17.99
2023-04-21T15:31:38.091Z,18.12
2023-04-21T15:34:04.610Z,18.08
2023-04-21T15:36:32.066Z,18.19
2023-04-21T15:38:58.591Z,18.14
2023-04-21T15:41:26.361Z,17.89
2023-04-21T15:43:52.999Z,17.76
2023-04-21T15:46:19.580Z,17.75
2023-04-21T15:48:46.112Z,17.94
2023-04-21T15:51:13.287Z,18.06
2023-04-21T15:53:46.990Z,18.35
2023-04-21T15:56:14.635Z,18.52
2023-04-21T15:58:41.263Z,18.58
2023-04-21T16:01:08.347Z,18.64
2023-04-21T16:03:35.373Z,18.43
2023-04-21T16:06:02.084Z,18.15
2023-04-21T16:08:28.842Z,18.03
2023-04-21T16:10:56.077Z,17.99
2023-04-21T16:13:22.547Z,18.00
2023-04-21T16:15:49.056Z,17.98
2023-04-21T16:18:15.811Z,17.93
2023-04-21T16:20:44.009Z,18.08
2023-04-21T16:23:10.675Z,18.26
2023-04-21T16:25:37.284Z,18.38
2023-04-21T16:28:03.956Z,18.41
2023-04-21T16:30:30.387Z,18.16
2023-04-21T16:32:56.883Z,17.88
2023-04-21T16:35:23.603Z,17.68
2023-04-21T16:37:50.283Z,17.56
2023-04-21T16:40:16.791Z,17.49
2023-04-21T16:42:43.346Z,17.39
2023-04-21T16:45:10.361Z,17.30
2023-04-21T16:47:41.640Z,17.28
2023-04-21T16:50:09.489Z,17.26
2023-04-21T16:52:36.330Z,17.17
2023-04-21T16:55:02.863Z,17.13
2023-04-21T16:57:31.150Z,17.02
2023-04-21T17:00:00.808Z,16.99
2023-04-21T17:02:27.462Z,16.91
2023-04-21T17:04:54.045Z,16.84
2023-04-21T17:07:20.565Z,16.85
2023-04-21T17:09:47.044Z,16.85
2023-04-21T17:12:13.455Z,16.84
2023-04-21T17:14:40.495Z,16.80
2023-04-21T17:17:07.203Z,16.77
2023-04-21T17:19:33.882Z,16.77
2023-04-21T17:22:00.554Z,16.74
2023-04-21T17:24:29.585Z,16.75
2023-04-21T17:26:59.751Z,16.74
2023-04-21T17:29:26.917Z,16.71
2023-04-21T17:31:53.674Z,16.67
2023-04-21T17:34:20.174Z,16.66
2023-04-21T17:36:46.787Z,16.68
2023-04-21T17:39:14.073Z,16.68
2023-04-21T17:41:41.906Z,16.67
2023-04-21T17:44:08.432Z,16.69
2023-04-21T17:46:35.389Z,16.56
2023-04-21T17:49:02.013Z,16.51
2023-04-21T17:51:28.774Z,16.45
2023-04-21T17:53:55.207Z,16.37
2023-04-21T17:56:22.409Z,16.33
2023-04-21T17:58:48.874Z,16.24
2023-04-21T18:01:15.382Z,16.15
2023-04-21T18:03:43.000Z,16.08
2023-04-21T18:06:11.261Z,15.99
2023-04-21T18:08:38.209Z,15.94
2023-04-21T18:11:04.752Z,15.89
2023-04-21T18:13:31.221Z,15.83
2023-04-21T18:15:58.014Z,15.76
2023-04-21T18:18:25.523Z,15.69
2023-04-21T18:20:52.206Z,15.62
2023-04-21T18:23:18.698Z,15.54
2023-04-21T18:25:45.820Z,15.48
2023-04-21T18:28:13.034Z,15.43
2023-04-21T18:30:39.913Z,15.37
2023-04-21T18:33:06.565Z,15.30
2023-04-21T18:35:33.953Z,15.21
2023-04-21T18:38:00.839Z,15.10
2023-04-21T18:40:27.568Z,14.98
2023-04-21T18:42:54.159Z,14.85
2023-04-21T18:45:20.661Z,14.68
2023-04-21T18:47:47.565Z,14.62
2023-04-21T18:50:15.600Z,14.58
2023-04-21T18:52:42.086Z,14.58
2023-04-21T18:55:09.239Z,14.55
2023-04-21T18:57:35.713Z,14.50
2023-04-21T19:00:02.158Z,14.54
2023-04-21T19:02:29.682Z,14.58
2023-04-21T19:04:56.328Z,14.62
2023-04-21T19:07:22.791Z,14.64
2023-04-21T19:09:49.307Z,14.52
2023-04-21T19:12:16.487Z,14.48
2023-04-21T19:14:47.566Z,14.32
2023-04-21T19:17:15.216Z,14.26
2023-04-21T19:19:42.508Z,14.12
2023-04-21T19:22:08.994Z,13.86
2023-04-21T19:24:35.977Z,13.86
2023-04-21T19:27:03.511Z,13.87
2023-04-21T19:29:31.023Z,13.68
2023-04-21T19:31:58.468Z,13.66
2023-04-21T19:34:25.208Z,13.53
2023-04-21T19:36:52.821Z,13.38
2023-04-21T19:39:19.448Z,13.32
2023-04-21T19:41:46.061Z,13.15
2023-04-21T19:44:12.896Z,13.18
2023-04-21T19:46:42.518Z,13.26
2023-04-21T19:49:13.010Z,13.26
2023-04-21T19:51:40.618Z,13.21
2023-04-21T19:54:11.317Z,13.21
2023-04-21T19:56:39.468Z,13.21
2023-04-21T19:59:06.448Z,13.16
2023-04-21T20:01:36.102Z,12.95
2023-04-21T20:04:03.560Z,12.70
2023-04-21T20:06:30.522Z,12.77
2023-04-21T20:08:57.009Z,12.76
2023-04-21T20:11:23.840Z,12.85
2023-04-21T20:13:50.632Z,12.90
2023-04-21T20:16:20.123Z,12.92
2023-04-21T20:18:46.903Z,12.90
2023-04-21T20:21:13.384Z,12.93
2023-04-21T20:23:39.809Z,12.93
2023-04-21T20:26:06.572Z,12.87
2023-04-21T20:28:33.209Z,12.85
2023-04-21T20:30:59.850Z,12.80
2023-04-21T20:33:26.334Z,12.73
2023-04-21T20:35:52.826Z,12.73
2023-04-21T20:38:19.400Z,12.70
2023-04-21T20:40:50.070Z,12.67
2023-04-21T20:43:18.824Z,12.66
2023-04-21T20:45:46.973Z,12.62
2023-04-21T20:48:13.460Z,12.57
2023-04-21T20:50:39.875Z,12.46
2023-04-21T20:53:08.424Z,12.41
2023-04-21T20:55:35.356Z,12.41
2023-04-21T20:58:02.604Z,12.42
2023-04-21T21:00:31.526Z,12.44
2023-04-21T21:02:58.354Z,12.39
2023-04-21T21:05:24.961Z,12.37
2023-04-21T21:07:51.500Z,12.28
2023-04-21T21:10:18.657Z,12.19
2023-04-21T21:12:45.221Z,12.25
2023-04-21T21:15:11.801Z,12.26
2023-04-21T21:17:38.319Z,12.23
2023-04-21T21:20:05.847Z,12.17
2023-04-21T21:22:32.316Z,12.02
2023-04-21T21:24:58.837Z,11.99
2023-04-21T21:27:25.306Z,11.96
2023-04-21T21:29:51.851Z,11.92
2023-04-21T21:32:18.520Z,11.94
2023-04-21T21:34:45.616Z,11.92
2023-04-21T21:37:12.049Z,11.83
2023-04-21T21:39:38.696Z,11.76
2023-04-21T21:42:05.439Z,11.69
2023-04-21T21:44:32.071Z,11.65
2023-04-21T21:46:58.619Z,11.50
2023-04-21T21:49:25.127Z,11.33
2023-04-21T21:51:52.922Z,11.33
2023-04-21T21:54:19.367Z,11.44
2023-04-21T21:56:45.859Z,11.47
2023-04-21T21:59:12.588Z,11.52
2023-04-21T22:01:39.318Z,11.51
2023-04-21T22:04:06.311Z,11.54
2023-04-21T22:06:34.751Z,11.46
2023-04-21T22:09:01.295Z,11.24
2023-04-21T22:11:27.824Z,11.06
2023-04-21T22:13:54.370Z,11.14
2023-04-21T22:16:20.845Z,11.22
2023-04-21T22:18:48.262Z,11.29
2023-04-21T22:21:15.104Z,11.19
2023-04-21T22:23:41.617Z,10.96
2023-04-21T22:26:09.247Z,10.95
2023-04-21T22:28:35.734Z,10.99
2023-04-21T22:31:02.212Z,10.63
2023-04-21T22:33:29.040Z,10.42
2023-04-21T22:35:55.799Z,10.43
2023-04-21T22:38:22.273Z,10.59
2023-04-21T22:40:48.774Z,10.70
2023-04-21T22:43:15.482Z,10.72
2023-04-21T22:45:42.855Z,10.66
2023-04-21T22:48:09.422Z,10.38
2023-04-21T22:50:35.860Z,10.08
2023-04-21T22:53:02.326Z,10.11
2023-04-21T22:55:29.057Z,10.25
2023-04-21T22:57:55.575Z,10.34
2023-04-21T23:00:22.064Z,10.43
2023-04-21T23:02:48.732Z,10.49
2023-04-21T23:05:15.782Z,10.54
2023-04-21T23:07:42.288Z,10.40
2023-04-21T23:10:09.104Z,10.38
2023-04-21T23:12:35.628Z,10.34
2023-04-21T23:15:02.086Z,10.17
2023-04-21T23:17:28.569Z,10.03
2023-04-21T23:19:55.307Z,9.98
2023-04-21T23:22:25.431Z,10.00
2023-04-21T23:24:52.641Z,10.01
2023-04-21T23:27:19.154Z,10.08
2023-04-21T23:29:45.629Z,9.81
2023-04-21T23:32:12.339Z,9.84
2023-04-21T23:34:39.575Z,9.89
2023-04-21T23:37:06.023Z,9.90
2023-04-21T23:39:32.585Z,9.86
2023-04-21T23:41:59.088Z,9.88
2023-04-21T23:44:25.630Z,9.88
2023-04-21T23:46:52.109Z,9.94
2023-04-21T23:49:18.601Z,9.86
2023-04-21T23:51:45.237Z,9.84
2023-04-21T23:54:11.702Z,9.81
2023-04-21T23:56:38.116Z,9.77
2023-04-21T23:59:04.635Z,9.76
